Mountain, West Virginia
Current Conditions -  °F | °C
As of 10:53 AM on Monday 26 Jan 2015 (Local Time) from KPKB Reporting Station
Light Snow Light Snow  
Wind Chill: 18°   Ceiling: 700
Heat Index: 27°   Visibility: 0.75mi
Dew Point: 24°   Wind: 9mph
Humidity: 89%   Direction: 310°NW
Pressure: 29.78"   Gusts: NA
Location:  39.36°N, 80.91°W
Report Text: KPKB 261553Z 31008KT 280V340 3/4SM R03/5000FT -SN BR BKN007 OVC020 M03/M04 A2978 RMK AO2 SLP090 P0003 T10281044
Loading
Personal Weather Stations






























Interactive Weather Map New forecast layout! Learn more

10-Day Weather Forecast

Advertisements
Track Severe Weather on mobile